Terminal Aerodrome Forecast
Issued by NWS

Home | Current Version | Previous Version | Text Only | Print | Product List | Glossary On
Versions: 1 2 3 4 5 6 7 8 9 10 11 12 13
000
FTUS46 KPDT 052159 AAA
TAFALW
TAF AMD
KALW 052159Z 0522/0618 24015G22KT P6SM SCT050 SCT250
     FM060300 19009KT P6SM SCT050 SCT250
     FM060900 18007KT P6SM BKN100 BKN200=

USA.gov is the U.S. government's official web portal to all federal, state and local government web resources and services.